• Join FlightAware (Why Join?)
  • Login
  • US Flag 
12:57PM EDT


 

Airport Tracker/Info


-or-


 

Live Flight TrackerFlight Track Log ✈ ASQ5745 ✈ 15-May-2013 ✈ KIAD - KALB

Flight Track Log - Related Links

Times and Time Zones

All times are in EDT time to prevent confusion due to time zone crossing. See the ASQ5745 flight status page for this flight to view local times or setup timezone preferences in your user account.

Time Position Orientation Groundspeed Altitude Reporting Facility
EDT Latitude Longitude Course Direction KTS MPH feet Rate Location/Type
09:44AM 38.9667 -77.5333 North 192 221 2,600  Level Potomac TRACON
09:45AM 39.0167 -77.5500 345° North 253 291 5,000 2,460 Climbing Potomac TRACON
09:47AM 39.2883 -77.4500 North  Level FlightAware Approximate
09:47AM 39.1583 -77.5297 North 272 313 10,000  Level Washington Center
09:48AM 39.3770 -77.4500 North  Level FlightAware Approximate
09:48AM 39.2439 -77.5186 North 279 321 11,000  Level Washington Center
09:49AM 39.4658 -77.4500 North  Level FlightAware Approximate
09:49AM 39.3381 -77.5022 North 314 361 12,600  Level Washington Center
09:50AM 39.4383 -77.4861 North 338 389 14,500 1,740 Climbing Washington Center
09:52AM 39.6342 -77.4539 North 357 411 17,800 1,440 Climbing New York Center
09:53AM 39.7242 -77.4517 North 352 405 18,900 1,140 Climbing New York Center
09:54AM 39.8325 -77.4539 359° North 352 405 20,100 1,020 Climbing New York Center
09:55AM 39.9328 -77.4500 North 352 405 21,000 840 Climbing New York Center
09:56AM 40.0350 -77.4489 360° North 352 405 21,900 840 Climbing New York Center
09:57AM 40.1394 -77.4453 North 364 419 22,800 720 Climbing New York Center
09:58AM 40.2442 -77.4011 18° North 381 438 23,400 540 Climbing New York Center
09:59AM 40.3478 -77.3372 25° Northeast 388 447 23,900 420 Climbing New York Center
10:00AM 40.4408 -77.2753 27° Northeast 400 460 24,300 420 Climbing New York Center
10:01AM 40.5489 -77.2064 26° Northeast 421 484 24,800 480 Climbing New York Center
10:02AM 40.6567 -77.1369 26° Northeast 426 490 25,300 540 Climbing New York Center
10:03AM 40.7647 -77.0675 26° Northeast 426 490 25,900 540 Climbing New York Center
10:04AM 40.8747 -76.9953 26° Northeast 426 490 26,400 480 Climbing New York Center
10:05AM 40.9850 -76.9228 26° Northeast 426 490 26,900 240 Climbing New York Center
10:06AM 41.0928 -76.8528 26° Northeast 426 490 27,000  Climbing New York Center
10:07AM 41.2006 -76.7825 26° Northeast 426 490 27,000  Level New York Center
10:08AM 41.3061 -76.7119 27° Northeast 426 490 27,000  Level New York Center
10:09AM 41.4158 -76.6414 26° Northeast 426 490 27,000  Level New York Center
10:10AM 41.5322 -76.5628 27° Northeast 426 490 27,000  Level New York Center
10:11AM 41.6400 -76.4889 27° Northeast 426 490 27,000 -540 Level New York Center
10:13AM 41.7992 -76.3531 32° Northeast 451 519 25,600 -960 Descending Boston Center
10:14AM 41.8606 -76.2008 62° Northeast 439 505 24,500 -840 Descending Boston Center
10:15AM 41.9197 -76.0481 62° Northeast 451 519 24,000 -300 Descending Boston Center
10:16AM 41.9811 -75.8867 63° Northeast 451 519 24,000  Level Boston Center
10:17AM 42.0397 -75.7361 62° Northeast 451 519 24,000  Level Boston Center
10:18AM 42.1075 -75.5578 63° Northeast 445 512 24,000  Level Boston Center
10:19AM 42.1636 -75.4064 63° Northeast 445 512 24,000 -780 Level Boston Center
10:20AM 42.2194 -75.2578 63° Northeast 440 506 22,500 -1,860 Descending Boston Center
10:21AM 42.2664 -75.1336 63° Northeast 425 489 20,300 -2,100 Descending Boston Center
10:22AM 42.3153 -75.0008 63° Northeast 402 463 18,400 -1,860 Descending Boston Center
10:23AM 42.3639 -74.8708 63° Northeast 388 447 16,600 -1,920 Descending Boston Center
10:24AM 42.4039 -74.7514 66° East 380 437 15,100 -1,800 Descending Boston Center
10:25AM 42.4503 -74.6292 63° Northeast 373 429 13,400 -1,620 Descending Boston Center
10:26AM 42.4964 -74.5014 64° Northeast 365 420 11,900 -1,380 Descending Boston Center
10:27AM 42.5422 -74.3817 63° Northeast 362 417 10,700 -1,260 Descending Boston Center
10:28AM 42.5792 -74.2814 63° Northeast 294 338 9,400 -1,620 Descending Boston Center
10:29AM 42.6408 -74.2183 37° Northeast 266 306 7,500 -1,800 Descending Boston Center
10:30AM 42.7061 -74.1636 32° Northeast 276 318 5,800 -1,560 Descending Boston Center
10:31AM 42.7842 -74.0978 32° Northeast 273 314 4,100 -840 Descending Boston Center
10:32AM 42.8475 -74.0486 30° Northeast 273 314 4,000 -300 Descending Boston Center
10:33AM 42.8906 -73.9450 60° Northeast 274 315 3,500 -540 Descending Boston Center
10:34AM 42.9167 -73.8661 66° East 248 285 3,000 -540 Descending Boston Center
10:35AM 42.9069 -73.8064 103° East 182 209 2,500 -540 Descending Boston Center